sensor_id;sensor_type;location;lat;lon;timestamp;pressure;altitude;pressure_sealevel;temperature;humidity
19594;BME280;9944;48.240;16.478;2022-10-20T00:01:21;100855.19;;;8.23;65.89
19594;BME280;9944;48.240;16.478;2022-10-20T00:05:24;100850.69;;;8.18;66.05
19594;BME280;9944;48.240;16.478;2022-10-20T00:09:27;100844.47;;;8.15;66.16
19594;BME280;9944;48.240;16.478;2022-10-20T00:13:30;100845.19;;;8.08;65.88
19594;BME280;9944;48.240;16.478;2022-10-20T00:17:35;100838.97;;;8.04;66.08
19594;BME280;9944;48.240;16.478;2022-10-20T00:21:38;100837.09;;;7.98;66.07
19594;BME280;9944;48.240;16.478;2022-10-20T00:25:41;100830.88;;;7.95;66.27
19594;BME280;9944;48.240;16.478;2022-10-20T00:29:46;100836.03;;;7.92;66.61
19594;BME280;9944;48.240;16.478;2022-10-20T00:33:51;100826.31;;;7.89;66.56
19594;BME280;9944;48.240;16.478;2022-10-20T00:37:54;100832.34;;;7.84;66.49
19594;BME280;9944;48.240;16.478;2022-10-20T00:42:01;100819.94;;;7.78;66.75
19594;BME280;9944;48.240;16.478;2022-10-20T00:46:04;100820.72;;;7.74;66.99
19594;BME280;9944;48.240;16.478;2022-10-20T00:50:11;100819.72;;;7.69;66.95
19594;BME280;9944;48.240;16.478;2022-10-20T00:54:17;100813.47;;;7.64;66.80
19594;BME280;9944;48.240;16.478;2022-10-20T00:58:22;100802.84;;;7.59;67.47
19594;BME280;9944;48.240;16.478;2022-10-20T01:02:26;100802.78;;;7.57;67.54
19594;BME280;9944;48.240;16.478;2022-10-20T01:06:31;100794.88;;;7.56;67.66
19594;BME280;9944;48.240;16.478;2022-10-20T01:10:39;100795.69;;;7.53;67.83
19594;BME280;9944;48.240;16.478;2022-10-20T01:14:48;100785.97;;;7.51;67.79
19594;BME280;9944;48.240;16.478;2022-10-20T01:18:58;100780.63;;;7.46;67.58
19594;BME280;9944;48.240;16.478;2022-10-20T01:23:33;100792.72;;;7.39;67.51
19594;BME280;9944;48.240;16.478;2022-10-20T01:27:42;100791.59;;;7.30;67.24
19594;BME280;9944;48.240;16.478;2022-10-20T01:31:52;100794.91;;;7.22;67.07
19594;BME280;9944;48.240;16.478;2022-10-20T01:36:01;100792.94;;;7.14;67.12
19594;BME280;9944;48.240;16.478;2022-10-20T01:40:11;100784.88;;;7.08;67.43
19594;BME280;9944;48.240;16.478;2022-10-20T01:44:23;100788.25;;;7.02;67.68
19594;BME280;9944;48.240;16.478;2022-10-20T01:48:30;100784.56;;;6.95;67.64
19594;BME280;9944;48.240;16.478;2022-10-20T01:52:33;100772.28;;;6.94;68.12
19594;BME280;9944;48.240;16.478;2022-10-20T01:56:41;100773.97;;;6.92;68.33
19594;BME280;9944;48.240;16.478;2022-10-20T02:00:50;100775.75;;;6.93;68.55
19594;BME280;9944;48.240;16.478;2022-10-20T02:05:06;100766.97;;;6.91;68.56
19594;BME280;9944;48.240;16.478;2022-10-20T02:09:16;100769.50;;;6.88;68.70
19594;BME280;9944;48.240;16.478;2022-10-20T02:13:22;100770.34;;;6.87;68.90
19594;BME280;9944;48.240;16.478;2022-10-20T02:17:28;100768.56;;;6.86;68.95
19594;BME280;9944;48.240;16.478;2022-10-20T02:21:31;100772.03;;;6.85;69.24
19594;BME280;9944;48.240;16.478;2022-10-20T02:25:34;100759.72;;;6.82;69.46
19594;BME280;9944;48.240;16.478;2022-10-20T02:29:42;100762.31;;;6.81;69.10
19594;BME280;9944;48.240;16.478;2022-10-20T02:33:48;100765.72;;;6.78;69.09
19594;BME280;9944;48.240;16.478;2022-10-20T02:37:52;100766.53;;;6.76;69.09
19594;BME280;9944;48.240;16.478;2022-10-20T02:41:55;100755.91;;;6.71;69.02
19594;BME280;9944;48.240;16.478;2022-10-20T02:45:58;100752.31;;;6.67;69.01
19594;BME280;9944;48.240;16.478;2022-10-20T02:50:03;100752.22;;;6.64;68.89
19594;BME280;9944;48.240;16.478;2022-10-20T02:54:06;100750.38;;;6.60;68.99
19594;BME280;9944;48.240;16.478;2022-10-20T02:58:09;100752.91;;;6.57;69.06
19594;BME280;9944;48.240;16.478;2022-10-20T03:02:12;100740.56;;;6.53;69.21
19594;BME280;9944;48.240;16.478;2022-10-20T03:06:16;100759.69;;;6.49;69.22
19594;BME280;9944;48.240;16.478;2022-10-20T03:10:19;100750.75;;;6.42;68.86
19594;BME280;9944;48.240;16.478;2022-10-20T03:14:22;100759.22;;;6.34;68.75
19594;BME280;9944;48.240;16.478;2022-10-20T03:18:25;100763.34;;;6.25;68.55
19594;BME280;9944;48.240;16.478;2022-10-20T03:22:30;100758.75;;;6.18;68.78
19594;BME280;9944;48.240;16.478;2022-10-20T03:26:33;100755.97;;;6.14;68.67
19594;BME280;9944;48.240;16.478;2022-10-20T03:30:36;100760.31;;;6.11;69.07
19594;BME280;9944;48.240;16.478;2022-10-20T03:34:39;100765.50;;;6.10;69.06
19594;BME280;9944;48.240;16.478;2022-10-20T03:38:44;100762.00;;;6.09;69.36
19594;BME280;9944;48.240;16.478;2022-10-20T03:42:47;100759.28;;;6.06;69.34
19594;BME280;9944;48.240;16.478;2022-10-20T03:46:50;100763.53;;;6.03;69.43
19594;BME280;9944;48.240;16.478;2022-10-20T03:50:53;100759.97;;;6.01;69.57
19594;BME280;9944;48.240;16.478;2022-10-20T03:54:57;100754.59;;;5.96;69.38
19594;BME280;9944;48.240;16.478;2022-10-20T03:59:00;100749.25;;;5.93;69.23
19594;BME280;9944;48.240;16.478;2022-10-20T04:03:04;100760.53;;;5.90;69.23
19594;BME280;9944;48.240;16.478;2022-10-20T04:07:07;100756.88;;;5.85;69.26
19594;BME280;9944;48.240;16.478;2022-10-20T04:11:12;100745.38;;;5.80;69.05
19594;BME280;9944;48.240;16.478;2022-10-20T04:15:15;100753.03;;;5.74;69.01
19594;BME280;9944;48.240;16.478;2022-10-20T04:19:19;100768.56;;;5.68;69.21
19594;BME280;9944;48.240;16.478;2022-10-20T04:23:25;100758.00;;;5.65;69.37
19594;BME280;9944;48.240;16.478;2022-10-20T04:27:32;100767.53;;;5.63;69.49
19594;BME280;9944;48.240;16.478;2022-10-20T04:31:37;100763.06;;;5.59;69.35
19594;BME280;9944;48.240;16.478;2022-10-20T04:35:44;100755.91;;;5.54;69.34
19594;BME280;9944;48.240;16.478;2022-10-20T04:39:47;100752.38;;;5.52;69.39
19594;BME280;9944;48.240;16.478;2022-10-20T04:43:53;100753.19;;;5.51;69.54
19594;BME280;9944;48.240;16.478;2022-10-20T04:47:56;100753.16;;;5.50;69.63
19594;BME280;9944;48.240;16.478;2022-10-20T04:51:59;100755.78;;;5.50;70.00
19594;BME280;9944;48.240;16.478;2022-10-20T04:56:03;100738.22;;;5.47;69.90
19594;BME280;9944;48.240;16.478;2022-10-20T05:00:09;100733.00;;;5.47;69.99
19594;BME280;9944;48.240;16.478;2022-10-20T05:04:13;100735.50;;;5.44;70.29
19594;BME280;9944;48.240;16.478;2022-10-20T05:08:21;100736.38;;;5.43;70.46
19594;BME280;9944;48.240;16.478;2022-10-20T05:12:24;100725.78;;;5.40;70.51
19594;BME280;9944;48.240;16.478;2022-10-20T05:16:30;100725.69;;;5.37;70.27
19594;BME280;9944;48.240;16.478;2022-10-20T05:20:33;100740.41;;;5.33;70.13
19594;BME280;9944;48.240;16.478;2022-10-20T05:24:46;100738.59;;;5.31;70.17
19594;BME280;9944;48.240;16.478;2022-10-20T05:28:50;100746.34;;;5.28;70.28
19594;BME280;9944;48.240;16.478;2022-10-20T05:32:54;100736.56;;;5.24;70.29
19594;BME280;9944;48.240;16.478;2022-10-20T05:36:57;100739.19;;;5.24;70.45
19594;BME280;9944;48.240;16.478;2022-10-20T05:41:04;100726.03;;;5.21;70.72
19594;BME280;9944;48.240;16.478;2022-10-20T05:45:08;100734.72;;;5.20;70.57
19594;BME280;9944;48.240;16.478;2022-10-20T05:49:14;100746.97;;;5.21;70.89
19594;BME280;9944;48.240;16.478;2022-10-20T05:53:18;100752.16;;;5.19;70.97
19594;BME280;9944;48.240;16.478;2022-10-20T05:57:21;100753.84;;;5.19;71.16
19594;BME280;9944;48.240;16.478;2022-10-20T06:01:26;100753.03;;;5.20;71.04
19594;BME280;9944;48.240;16.478;2022-10-20T06:05:40;100761.81;;;5.22;71.31
19594;BME280;9944;48.240;16.478;2022-10-20T06:09:43;100757.44;;;5.21;71.42
19594;BME280;9944;48.240;16.478;2022-10-20T06:13:46;100764.50;;;5.23;71.56
19594;BME280;9944;48.240;16.478;2022-10-20T06:17:53;100773.28;;;5.25;71.51
19594;BME280;9944;48.240;16.478;2022-10-20T06:21:58;100773.34;;;5.27;71.93
19594;BME280;9944;48.240;16.478;2022-10-20T06:26:09;100778.72;;;5.31;72.00
19594;BME280;9944;48.240;16.478;2022-10-20T06:30:13;100783.22;;;5.35;72.34
19594;BME280;9944;48.240;16.478;2022-10-20T06:34:17;100789.50;;;5.41;72.68
19594;BME280;9944;48.240;16.478;2022-10-20T06:38:23;100773.09;;;5.46;72.94
19594;BME280;9944;48.240;16.478;2022-10-20T06:42:26;100778.56;;;5.52;73.08
19594;BME280;9944;48.240;16.478;2022-10-20T06:46:31;100769.16;;;5.59;73.34
19594;BME280;9944;48.240;16.478;2022-10-20T06:50:34;100776.38;;;5.66;73.61
19594;BME280;9944;48.240;16.478;2022-10-20T06:54:39;100788.00;;;5.75;73.76
19594;BME280;9944;48.240;16.478;2022-10-20T06:58:44;100798.81;;;5.85;74.13
19594;BME280;9944;48.240;16.478;2022-10-20T07:02:47;100795.53;;;5.92;74.03
19594;BME280;9944;48.240;16.478;2022-10-20T07:06:52;100797.50;;;6.00;74.24
19594;BME280;9944;48.240;16.478;2022-10-20T07:11:00;100785.63;;;6.11;74.11
19594;BME280;9944;48.240;16.478;2022-10-20T07:15:05;100794.69;;;6.22;74.14
19594;BME280;9944;48.240;16.478;2022-10-20T07:19:08;100799.47;;;6.36;74.35
19594;BME280;9944;48.240;16.478;2022-10-20T07:23:11;100791.94;;;6.46;74.28
19594;BME280;9944;48.240;16.478;2022-10-20T07:27:16;100787.97;;;6.59;74.16
19594;BME280;9944;48.240;16.478;2022-10-20T07:31:21;100778.53;;;6.67;73.98
19594;BME280;9944;48.240;16.478;2022-10-20T07:35:24;100775.34;;;6.78;73.72
19594;BME280;9944;48.240;16.478;2022-10-20T07:39:27;100773.00;;;6.89;74.03
19594;BME280;9944;48.240;16.478;2022-10-20T07:43:31;100769.78;;;6.99;73.69
19594;BME280;9944;48.240;16.478;2022-10-20T07:47:35;100762.13;;;7.07;73.60
19594;BME280;9944;48.240;16.478;2022-10-20T07:51:39;100755.31;;;7.15;73.47
19594;BME280;9944;48.240;16.478;2022-10-20T07:55:42;100745.94;;;7.24;73.34
19594;BME280;9944;48.240;16.478;2022-10-20T07:59:48;100751.34;;;7.31;73.25
19594;BME280;9944;48.240;16.478;2022-10-20T08:03:51;100757.69;;;7.40;73.27
19594;BME280;9944;48.240;16.478;2022-10-20T08:07:54;100743.91;;;7.49;73.10
19594;BME280;9944;48.240;16.478;2022-10-20T08:11:59;100749.38;;;7.57;73.06
19594;BME280;9944;48.240;16.478;2022-10-20T08:16:03;100746.09;;;7.67;72.63
19594;BME280;9944;48.240;16.478;2022-10-20T08:20:09;100744.59;;;7.78;72.85
19594;BME280;9944;48.240;16.478;2022-10-20T08:24:27;100745.78;;;7.91;72.58
19594;BME280;9944;48.240;16.478;2022-10-20T08:28:30;100735.38;;;7.97;72.50
19594;BME280;9944;48.240;16.478;2022-10-20T08:32:34;100732.06;;;8.06;72.40
19594;BME280;9944;48.240;16.478;2022-10-20T08:36:38;100723.59;;;8.20;72.15
19594;BME280;9944;48.240;16.478;2022-10-20T08:40:41;100731.56;;;8.23;71.73
19594;BME280;9944;48.240;16.478;2022-10-20T08:44:46;100717.75;;;8.33;72.14
19594;BME280;9944;48.240;16.478;2022-10-20T08:48:50;100718.81;;;8.43;71.41
19594;BME280;9944;48.240;16.478;2022-10-20T08:52:56;100720.91;;;8.59;71.03
19594;BME280;9944;48.240;16.478;2022-10-20T08:57:00;100714.97;;;8.69;70.59
19594;BME280;9944;48.240;16.478;2022-10-20T09:01:15;100713.41;;;8.81;69.97
19594;BME280;9944;48.240;16.478;2022-10-20T09:05:24;100720.59;;;8.89;69.54
19594;BME280;9944;48.240;16.478;2022-10-20T09:09:30;100713.75;;;8.99;69.70
19594;BME280;9944;48.240;16.478;2022-10-20T09:13:35;100717.47;;;9.12;69.08
19594;BME280;9944;48.240;16.478;2022-10-20T09:17:39;100710.66;;;9.26;68.94
19594;BME280;9944;48.240;16.478;2022-10-20T09:21:47;100704.69;;;9.37;68.48
19594;BME280;9944;48.240;16.478;2022-10-20T09:25:53;100699.59;;;9.49;68.15
19594;BME280;9944;48.240;16.478;2022-10-20T09:29:56;100697.19;;;9.64;67.64
19594;BME280;9944;48.240;16.478;2022-10-20T09:33:59;100692.97;;;9.74;66.67
19594;BME280;9944;48.240;16.478;2022-10-20T09:38:16;100693.06;;;9.83;66.34
19594;BME280;9944;48.240;16.478;2022-10-20T09:42:23;100683.63;;;9.96;66.62
19594;BME280;9944;48.240;16.478;2022-10-20T09:46:29;100683.81;;;10.12;66.14
19594;BME280;9944;48.240;16.478;2022-10-20T09:50:36;100678.72;;;10.27;66.00
19594;BME280;9944;48.240;16.478;2022-10-20T09:54:45;100675.34;;;10.40;65.81
19594;BME280;9944;48.240;16.478;2022-10-20T09:58:49;100670.22;;;10.54;64.34
19594;BME280;9944;48.240;16.478;2022-10-20T10:03:23;100665.91;;;10.62;63.40
19594;BME280;9944;48.240;16.478;2022-10-20T10:07:29;100661.59;;;10.69;63.31
19594;BME280;9944;48.240;16.478;2022-10-20T10:11:35;100663.47;;;10.86;63.73
19594;BME280;9944;48.240;16.478;2022-10-20T10:15:39;100666.25;;;11.01;63.27
19594;BME280;9944;48.240;16.478;2022-10-20T10:19:46;100658.38;;;11.09;60.97
19594;BME280;9944;48.240;16.478;2022-10-20T10:23:58;100654.94;;;11.14;60.82
19594;BME280;9944;48.240;16.478;2022-10-20T10:28:05;100647.03;;;11.21;61.40
19594;BME280;9944;48.240;16.478;2022-10-20T10:32:24;100656.00;;;11.38;61.41
19594;BME280;9944;48.240;16.478;2022-10-20T10:36:31;100640.22;;;11.47;61.17
19594;BME280;9944;48.240;16.478;2022-10-20T10:40:41;100634.09;;;11.58;61.26
19594;BME280;9944;48.240;16.478;2022-10-20T10:44:54;100620.03;;;11.71;60.92
19594;BME280;9944;48.240;16.478;2022-10-20T10:49:21;100615.72;;;11.90;60.50
19594;BME280;9944;48.240;16.478;2022-10-20T10:53:38;100613.13;;;12.01;60.74
19594;BME280;9944;48.240;16.478;2022-10-20T10:57:54;100599.94;;;12.15;60.01
19594;BME280;9944;48.240;16.478;2022-10-20T11:02:17;100596.44;;;12.19;59.39
19594;BME280;9944;48.240;16.478;2022-10-20T11:06:32;100589.34;;;12.18;59.18
19594;BME280;9944;48.240;16.478;2022-10-20T11:10:48;100574.38;;;12.27;59.04
19594;BME280;9944;48.240;16.478;2022-10-20T11:15:05;100571.72;;;12.34;59.35
19594;BME280;9944;48.240;16.478;2022-10-20T11:19:32;100554.09;;;12.43;59.16
19594;BME280;9944;48.240;16.478;2022-10-20T11:23:59;100547.06;;;12.52;59.30
19594;BME280;9944;48.240;16.478;2022-10-20T11:28:26;100535.56;;;12.54;57.96
19594;BME280;9944;48.240;16.478;2022-10-20T11:32:32;100534.72;;;12.64;59.24
19594;BME280;9944;48.240;16.478;2022-10-20T11:36:45;100533.81;;;12.75;58.03
19594;BME280;9944;48.240;16.478;2022-10-20T11:40:56;100522.34;;;12.82;58.47
19594;BME280;9944;48.240;16.478;2022-10-20T11:45:08;100515.25;;;12.88;58.25
19594;BME280;9944;48.240;16.478;2022-10-20T11:49:18;100513.50;;;12.98;58.50
19594;BME280;9944;48.240;16.478;2022-10-20T11:53:34;100501.97;;;13.07;58.05
19594;BME280;9944;48.240;16.478;2022-10-20T11:57:49;100500.16;;;13.15;57.57
19594;BME280;9944;48.240;16.478;2022-10-20T12:02:36;100493.13;;;13.13;56.67
19594;BME280;9944;48.240;16.478;2022-10-20T12:07:01;100486.03;;;13.15;57.78
19594;BME280;9944;48.240;16.478;2022-10-20T12:11:17;100473.66;;;13.26;58.42
19594;BME280;9944;48.240;16.478;2022-10-20T12:15:25;100470.06;;;13.33;57.27
19594;BME280;9944;48.240;16.478;2022-10-20T12:19:30;100468.28;;;13.35;56.75
19594;BME280;9944;48.240;16.478;2022-10-20T12:23:56;100464.72;;;13.38;56.81
19594;BME280;9944;48.240;16.478;2022-10-20T12:28:38;100460.31;;;13.38;56.81
19594;BME280;9944;48.240;16.478;2022-10-20T12:33:08;100461.19;;;13.37;56.73
19594;BME280;9944;48.240;16.478;2022-10-20T12:37:18;100455.03;;;13.32;56.69
19594;BME280;9944;48.240;16.478;2022-10-20T12:41:27;100442.69;;;13.30;57.01
19594;BME280;9944;48.240;16.478;2022-10-20T12:45:38;100440.03;;;13.28;57.12
19594;BME280;9944;48.240;16.478;2022-10-20T12:49:51;100446.22;;;13.30;57.30
19594;BME280;9944;48.240;16.478;2022-10-20T12:53:58;100435.59;;;13.35;57.39
19594;BME280;9944;48.240;16.478;2022-10-20T12:58:11;100423.22;;;13.32;57.20
19594;BME280;9944;48.240;16.478;2022-10-20T13:07:03;100401.13;;;13.33;57.78
19594;BME280;9944;48.240;16.478;2022-10-20T13:11:31;100396.69;;;13.40;57.93
19594;BME280;9944;48.240;16.478;2022-10-20T13:15:36;100394.88;;;13.42;57.73
19594;BME280;9944;48.240;16.478;2022-10-20T13:19:44;100385.16;;;13.39;58.07
19594;BME280;9944;48.240;16.478;2022-10-20T13:23:54;100381.63;;;13.40;57.76
19594;BME280;9944;48.240;16.478;2022-10-20T13:28:04;100382.50;;;13.38;57.79
19594;BME280;9944;48.240;16.478;2022-10-20T13:32:16;100374.59;;;13.36;57.84
19594;BME280;9944;48.240;16.478;2022-10-20T13:36:31;100375.47;;;13.37;57.79
19594;BME280;9944;48.240;16.478;2022-10-20T13:40:44;100381.66;;;13.34;58.14
19594;BME280;9944;48.240;16.478;2022-10-20T13:44:57;100383.44;;;13.35;57.92
19594;BME280;9944;48.240;16.478;2022-10-20T13:49:32;100385.22;;;13.36;57.89
19594;BME280;9944;48.240;16.478;2022-10-20T13:53:42;100377.19;;;13.42;58.14
19594;BME280;9944;48.240;16.478;2022-10-20T13:57:51;100380.72;;;13.46;58.38
19594;BME280;9944;48.240;16.478;2022-10-20T14:01:58;100380.69;;;13.49;58.14
19594;BME280;9944;48.240;16.478;2022-10-20T14:06:02;100387.75;;;13.52;58.04
19594;BME280;9944;48.240;16.478;2022-10-20T14:10:05;100370.94;;;13.53;57.83
19594;BME280;9944;48.240;16.478;2022-10-20T14:14:15;100368.31;;;13.51;57.35
19594;BME280;9944;48.240;16.478;2022-10-20T14:18:22;100360.38;;;13.47;57.71
19594;BME280;9944;48.240;16.478;2022-10-20T14:22:25;100354.19;;;13.44;57.11
19594;BME280;9944;48.240;16.478;2022-10-20T14:26:29;100367.47;;;13.41;57.35
19594;BME280;9944;48.240;16.478;2022-10-20T14:30:34;100356.03;;;13.36;57.56
19594;BME280;9944;48.240;16.478;2022-10-20T14:34:54;100358.69;;;13.33;57.48
19594;BME280;9944;48.240;16.478;2022-10-20T14:38:58;100357.84;;;13.31;57.24
19594;BME280;9944;48.240;16.478;2022-10-20T14:43:05;100357.84;;;13.28;57.31
19594;BME280;9944;48.240;16.478;2022-10-20T14:47:12;100353.44;;;13.25;57.44
19594;BME280;9944;48.240;16.478;2022-10-20T14:51:33;100360.53;;;13.19;57.58
19594;BME280;9944;48.240;16.478;2022-10-20T14:55:38;100356.16;;;13.10;57.73
19594;BME280;9944;48.240;16.478;2022-10-20T14:59:49;100344.69;;;13.06;58.13
19594;BME280;9944;48.240;16.478;2022-10-20T15:04:13;100350.03;;;13.00;57.74
19594;BME280;9944;48.240;16.478;2022-10-20T15:08:22;100339.44;;;12.94;58.21
19594;BME280;9944;48.240;16.478;2022-10-20T15:12:30;100331.56;;;12.88;58.34
19594;BME280;9944;48.240;16.478;2022-10-20T15:16:40;100333.34;;;12.83;58.44
19594;BME280;9944;48.240;16.478;2022-10-20T15:20:45;100323.66;;;12.76;58.65
19594;BME280;9944;48.240;16.478;2022-10-20T15:24:48;100316.59;;;12.68;58.91
19594;BME280;9944;48.240;16.478;2022-10-20T15:28:51;100313.13;;;12.63;59.05
19594;BME280;9944;48.240;16.478;2022-10-20T15:32:55;100314.88;;;12.61;59.22
19594;BME280;9944;48.240;16.478;2022-10-20T15:37:00;100305.16;;;12.56;59.26
19594;BME280;9944;48.240;16.478;2022-10-20T15:41:03;100292.81;;;12.48;59.64
19594;BME280;9944;48.240;16.478;2022-10-20T15:45:13;100280.50;;;12.41;59.93
19594;BME280;9944;48.240;16.478;2022-10-20T15:49:18;100284.91;;;12.35;59.83
19594;BME280;9944;48.240;16.478;2022-10-20T15:53:23;100285.81;;;12.30;59.87
19594;BME280;9944;48.240;16.478;2022-10-20T15:57:26;100287.56;;;12.28;60.58
19594;BME280;9944;48.240;16.478;2022-10-20T16:01:29;100277.88;;;12.21;60.33
19594;BME280;9944;48.240;16.478;2022-10-20T16:05:33;100286.72;;;12.17;60.70
19594;BME280;9944;48.240;16.478;2022-10-20T16:09:37;100296.44;;;12.15;61.08
19594;BME280;9944;48.240;16.478;2022-10-20T16:13:40;100299.97;;;12.12;61.39
19594;BME280;9944;48.240;16.478;2022-10-20T16:17:44;100292.03;;;12.12;61.41
19594;BME280;9944;48.240;16.478;2022-10-20T16:21:55;100280.56;;;12.10;61.42
19594;BME280;9944;48.240;16.478;2022-10-20T16:26:05;100281.47;;;12.05;61.60
19594;BME280;9944;48.240;16.478;2022-10-20T16:30:08;100294.69;;;11.99;61.97
19594;BME280;9944;48.240;16.478;2022-10-20T16:34:11;100299.13;;;11.97;61.58
19594;BME280;9944;48.240;16.478;2022-10-20T16:38:14;100289.44;;;11.92;62.03
19594;BME280;9944;48.240;16.478;2022-10-20T16:42:19;100284.13;;;11.88;62.22
19594;BME280;9944;48.240;16.478;2022-10-20T16:46:22;100289.44;;;11.79;62.46
19594;BME280;9944;48.240;16.478;2022-10-20T16:50:25;100281.50;;;11.72;62.33
19594;BME280;9944;48.240;16.478;2022-10-20T16:54:29;100285.91;;;11.70;62.50
19594;BME280;9944;48.240;16.478;2022-10-20T16:58:33;100286.81;;;11.65;62.97
19594;BME280;9944;48.240;16.478;2022-10-20T17:02:37;100283.28;;;11.58;63.11
19594;BME280;9944;48.240;16.478;2022-10-20T17:06:43;100290.34;;;11.54;63.35
19594;BME280;9944;48.240;16.478;2022-10-20T17:10:46;100282.41;;;11.53;63.39
19594;BME280;9944;48.240;16.478;2022-10-20T17:14:51;100277.09;;;11.51;63.22
19594;BME280;9944;48.240;16.478;2022-10-20T17:18:54;100276.22;;;11.46;63.21
19594;BME280;9944;48.240;16.478;2022-10-20T17:22:57;100272.69;;;11.38;63.79
19594;BME280;9944;48.240;16.478;2022-10-20T17:27:00;100274.44;;;11.33;63.79
19594;BME280;9944;48.240;16.478;2022-10-20T17:31:07;100269.16;;;11.30;64.16
19594;BME280;9944;48.240;16.478;2022-10-20T17:35:10;100269.13;;;11.27;64.29
19594;BME280;9944;48.240;16.478;2022-10-20T17:39:15;100261.19;;;11.24;64.29
19594;BME280;9944;48.240;16.478;2022-10-20T17:43:18;100239.16;;;11.18;64.70
19594;BME280;9944;48.240;16.478;2022-10-20T17:47:22;100255.91;;;11.21;64.83
19594;BME280;9944;48.240;16.478;2022-10-20T17:51:26;100248.88;;;11.19;65.01
19594;BME280;9944;48.240;16.478;2022-10-20T17:55:35;100240.03;;;11.19;65.09
19594;BME280;9944;48.240;16.478;2022-10-20T17:59:38;100240.94;;;11.19;64.99
19594;BME280;9944;48.240;16.478;2022-10-20T18:03:57;100232.13;;;11.21;64.93
19594;BME280;9944;48.240;16.478;2022-10-20T18:08:01;100232.13;;;11.21;65.25
19594;BME280;9944;48.240;16.478;2022-10-20T18:12:04;100237.41;;;11.21;65.16
19594;BME280;9944;48.240;16.478;2022-10-20T18:16:08;100233.88;;;11.18;65.12
19594;BME280;9944;48.240;16.478;2022-10-20T18:20:13;100228.59;;;11.18;65.14
19594;BME280;9944;48.240;16.478;2022-10-20T18:24:17;100234.75;;;11.17;65.40
19594;BME280;9944;48.240;16.478;2022-10-20T18:28:20;100233.88;;;11.18;65.57
19594;BME280;9944;48.240;16.478;2022-10-20T18:32:24;100224.22;;;11.16;65.62
19594;BME280;9944;48.240;16.478;2022-10-20T18:36:28;100218.03;;;11.15;65.69
19594;BME280;9944;48.240;16.478;2022-10-20T18:40:32;100216.28;;;11.13;65.88
19594;BME280;9944;48.240;16.478;2022-10-20T18:44:35;100223.31;;;11.09;66.00
19594;BME280;9944;48.240;16.478;2022-10-20T18:48:39;100220.66;;;11.08;66.30
19594;BME280;9944;48.240;16.478;2022-10-20T18:52:44;100219.78;;;11.04;66.13
19594;BME280;9944;48.240;16.478;2022-10-20T18:56:47;100209.22;;;11.01;66.14
19594;BME280;9944;48.240;16.478;2022-10-20T19:00:55;100202.16;;;11.00;66.36
19594;BME280;9944;48.240;16.478;2022-10-20T19:04:59;100203.94;;;11.01;66.36
19594;BME280;9944;48.240;16.478;2022-10-20T19:09:05;100203.91;;;10.98;66.68
19594;BME280;9944;48.240;16.478;2022-10-20T19:13:08;100201.25;;;10.96;66.60
19594;BME280;9944;48.240;16.478;2022-10-20T19:17:11;100198.63;;;10.95;66.65
19594;BME280;9944;48.240;16.478;2022-10-20T19:21:15;100195.09;;;10.94;66.51
19594;BME280;9944;48.240;16.478;2022-10-20T19:25:20;100189.84;;;10.90;66.52
19594;BME280;9944;48.240;16.478;2022-10-20T19:29:23;100189.84;;;10.90;66.59
19594;BME280;9944;48.240;16.478;2022-10-20T19:33:26;100181.88;;;10.91;66.59
19594;BME280;9944;48.240;16.478;2022-10-20T19:37:30;100188.06;;;10.92;66.50
19594;BME280;9944;48.240;16.478;2022-10-20T19:41:35;100184.53;;;10.93;66.57
19594;BME280;9944;48.240;16.478;2022-10-20T19:45:38;100186.31;;;10.91;66.46
19594;BME280;9944;48.240;16.478;2022-10-20T19:49:41;100188.06;;;10.89;66.56
19594;BME280;9944;48.240;16.478;2022-10-20T19:53:45;100177.50;;;10.89;66.74
19594;BME280;9944;48.240;16.478;2022-10-20T19:57:50;100177.50;;;10.86;66.90
19594;BME280;9944;48.240;16.478;2022-10-20T20:01:53;100185.41;;;10.84;66.35
19594;BME280;9944;48.240;16.478;2022-10-20T20:05:57;100182.75;;;10.82;66.60
19594;BME280;9944;48.240;16.478;2022-10-20T20:10:01;100177.47;;;10.82;66.81
19594;BME280;9944;48.240;16.478;2022-10-20T20:14:07;100187.16;;;10.80;66.53
19594;BME280;9944;48.240;16.478;2022-10-20T20:18:10;100173.97;;;10.74;66.62
19594;BME280;9944;48.240;16.478;2022-10-20T20:22:14;100172.19;;;10.73;66.41
19594;BME280;9944;48.240;16.478;2022-10-20T20:26:17;100174.84;;;10.73;66.51
19594;BME280;9944;48.240;16.478;2022-10-20T20:30:21;100165.16;;;10.69;66.69
19594;BME280;9944;48.240;16.478;2022-10-20T20:34:24;100170.44;;;10.66;66.48
19594;BME280;9944;48.240;16.478;2022-10-20T20:38:29;100164.28;;;10.66;66.12
19594;BME280;9944;48.240;16.478;2022-10-20T20:42:33;100166.00;;;10.65;66.04
19594;BME280;9944;48.240;16.478;2022-10-20T20:46:37;100150.19;;;10.60;65.96
19594;BME280;9944;48.240;16.478;2022-10-20T20:50:40;100154.56;;;10.60;65.94
19594;BME280;9944;48.240;16.478;2022-10-20T20:54:43;100159.84;;;10.57;65.89
19594;BME280;9944;48.240;16.478;2022-10-20T20:58:46;100152.81;;;10.56;65.65
19594;BME280;9944;48.240;16.478;2022-10-20T21:02:52;100144.88;;;10.51;65.82
19594;BME280;9944;48.240;16.478;2022-10-20T21:06:59;100137.81;;;10.46;65.45
19594;BME280;9944;48.240;16.478;2022-10-20T21:11:05;100142.22;;;10.43;65.84
19594;BME280;9944;48.240;16.478;2022-10-20T21:15:09;100137.78;;;10.41;65.17
19594;BME280;9944;48.240;16.478;2022-10-20T21:19:13;100135.19;;;10.39;65.21
19594;BME280;9944;48.240;16.478;2022-10-20T21:23:16;100131.63;;;10.37;65.21
19594;BME280;9944;48.240;16.478;2022-10-20T21:27:19;100141.31;;;10.35;65.14
19594;BME280;9944;48.240;16.478;2022-10-20T21:31:25;100126.34;;;10.31;65.12
19594;BME280;9944;48.240;16.478;2022-10-20T21:35:30;100128.97;;;10.28;64.99
19594;BME280;9944;48.240;16.478;2022-10-20T21:39:33;100140.41;;;10.24;65.14
19594;BME280;9944;48.240;16.478;2022-10-20T21:43:39;100155.34;;;10.23;65.19